Time;durP1;ratioP1;P1;durP2;ratioP2;P2;SDS_P1;SDS_P2;PMS_P1;PMS_P2;Temp;Humidity;BMP_temperature;BMP_pressure;BME280_temperature;BME280_humidity;BME280_pressure;Samples;Min_cycle;Max_cycle;Signal;HPM_P1;HPM_P2
2022/03/27 03:00:26;;;;;;;30.47;27.13;;;2.40;99.90;;;;;;5895919;23;20176;-71
2022/03/27 03:02:53;;;;;;;28.90;24.70;;;2.40;99.90;;;;;;4971657;28;20597;-71
2022/03/27 03:05:19;;;;;;;25.23;21.07;;;2.30;99.90;;;;;;4973591;28;20547;-71
2022/03/27 03:07:46;;;;;;;23.77;19.87;;;2.30;99.90;;;;;;4972820;28;20185;-71
2022/03/27 03:10:14;;;;;;;26.27;19.67;;;2.30;99.90;;;;;;4973011;28;20177;-71
2022/03/27 03:12:40;;;;;;;22.87;19.60;;;2.30;99.90;;;;;;4972055;28;20188;-71
2022/03/27 03:15:07;;;;;;;29.30;18.63;;;2.30;99.90;;;;;;4993613;23;20228;-68
2022/03/27 03:17:33;;;;;;;28.87;23.27;;;2.30;99.90;;;;;;4971646;28;20527;-69
2022/03/27 03:19:59;;;;;;;26.80;22.60;;;2.30;99.90;;;;;;4972020;28;20186;-69
2022/03/27 03:22:26;;;;;;;24.90;19.33;;;2.30;99.90;;;;;;4971174;28;20299;-68
2022/03/27 03:24:52;;;;;;;30.87;21.73;;;2.30;99.90;;;;;;4971263;28;20800;-70
2022/03/27 03:27:18;;;;;;;30.20;22.10;;;2.30;99.90;;;;;;4970821;28;20364;-68
2022/03/27 03:29:44;;;;;;;27.27;22.93;;;2.30;99.90;;;;;;4972168;28;20280;-71
2022/03/27 03:32:09;;;;;;;27.40;23.77;;;2.30;99.90;;;;;;4972401;28;20267;-71
2022/03/27 03:34:35;;;;;;;30.07;26.87;;;2.30;99.90;;;;;;4972198;28;20201;-67
2022/03/27 03:37:01;;;;;;;24.93;21.77;;;2.20;99.90;;;;;;4971840;28;20185;-67
2022/03/27 03:39:27;;;;;;;27.50;22.43;;;2.20;99.90;;;;;;4972166;28;20181;-67
2022/03/27 03:41:53;;;;;;;23.63;19.60;;;2.10;99.90;;;;;;4972398;28;20287;-66
2022/03/27 03:44:18;;;;;;;24.70;18.77;;;2.10;99.90;;;;;;4971060;28;20710;-68
2022/03/27 03:46:46;;;;;;;27.20;17.87;;;2.10;99.90;;;;;;4971993;28;20260;-68
2022/03/27 03:49:12;;;;;;;26.50;18.50;;;2.00;99.90;;;;;;4970840;28;20288;-67
2022/03/27 03:51:38;;;;;;;23.93;18.13;;;2.00;99.90;;;;;;4970779;28;20248;-67
2022/03/27 03:54:07;;;;;;;27.90;17.70;;;1.90;99.90;;;;;;4971915;28;20205;-68
2022/03/27 03:56:34;;;;;;;26.23;17.30;;;1.90;99.90;;;;;;4971503;28;20192;-69
2022/03/27 03:58:59;;;;;;;25.67;18.13;;;1.80;99.90;;;;;;4971655;28;20288;-68
2022/03/27 04:01:25;;;;;;;25.70;18.67;;;1.80;99.90;;;;;;4971887;28;20370;-69
2022/03/27 04:03:51;;;;;;;28.83;18.13;;;1.80;99.90;;;;;;4971839;28;20181;-70
2022/03/27 04:06:16;;;;;;;24.47;18.77;;;1.80;99.90;;;;;;4972096;28;20652;-70
2022/03/27 04:08:42;;;;;;;26.53;19.47;;;1.70;99.90;;;;;;4971565;28;20220;-70
2022/03/27 04:11:14;;;;;;;24.93;17.17;;;1.70;99.90;;;;;;4974715;28;20196;-69
2022/03/27 04:13:40;;;;;;;30.50;19.27;;;1.70;99.90;;;;;;4981157;28;20188;-70
2022/03/27 04:16:06;;;;;;;31.27;22.00;;;1.70;99.90;;;;;;4976741;28;20196;-69
2022/03/27 04:18:32;;;;;;;31.63;20.87;;;1.70;99.90;;;;;;4975475;28;20195;-69
2022/03/27 04:20:58;;;;;;;27.00;22.17;;;1.60;99.90;;;;;;4975477;28;20220;-68
2022/03/27 04:23:24;;;;;;;33.27;28.90;;;1.60;99.90;;;;;;4974466;28;20187;-70
2022/03/27 04:25:49;;;;;;;34.30;30.80;;;1.50;99.90;;;;;;4975669;28;20677;-69
2022/03/27 04:28:15;;;;;;;41.87;36.80;;;1.50;99.90;;;;;;4975360;28;20185;-69
2022/03/27 04:30:41;;;;;;;31.20;25.20;;;1.50;99.90;;;;;;4974580;28;20256;-69
2022/03/27 04:33:08;;;;;;;31.20;28.07;;;1.50;99.90;;;;;;4973702;28;20188;-68
2022/03/27 04:35:34;;;;;;;28.93;25.83;;;1.50;99.90;;;;;;4975241;28;20208;-68
2022/03/27 04:38:00;;;;;;;30.93;26.00;;;1.50;99.90;;;;;;4975238;28;20555;-68
2022/03/27 04:40:27;;;;;;;28.57;25.57;;;1.50;99.90;;;;;;4968213;28;20194;-68
2022/03/27 04:42:52;;;;;;;27.60;24.83;;;1.50;99.90;;;;;;4972133;28;20208;-67
2022/03/27 04:45:18;;;;;;;27.77;24.63;;;1.40;99.90;;;;;;4975040;28;20204;-69
2022/03/27 04:47:44;;;;;;;28.40;25.40;;;1.50;99.90;;;;;;4974688;28;20200;-69
2022/03/27 04:50:10;;;;;;;26.47;22.50;;;1.40;99.90;;;;;;4975143;28;20239;-68
2022/03/27 04:52:37;;;;;;;36.87;33.23;;;1.30;99.90;;;;;;4974529;28;20184;-68
2022/03/27 04:55:03;;;;;;;35.43;32.00;;;1.40;99.90;;;;;;4974572;28;20209;-69
2022/03/27 04:57:35;;;;;;;58.47;53.43;;;1.40;99.90;;;;;;4973541;28;20189;-69
2022/03/27 05:00:02;;;;;;;30.23;23.33;;;1.30;99.90;;;;;;4974989;28;20652;-69
2022/03/27 05:02:28;;;;;;;24.17;20.70;;;1.30;99.90;;;;;;4974251;28;20212;-69
2022/03/27 05:04:54;;;;;;;25.03;18.43;;;1.30;99.90;;;;;;4973430;28;20201;-68
2022/03/27 05:07:20;;;;;;;31.53;20.77;;;1.30;99.90;;;;;;4974461;28;20181;-69
2022/03/27 05:09:46;;;;;;;26.50;19.20;;;1.20;99.90;;;;;;4975040;28;20177;-69
2022/03/27 05:12:11;;;;;;;32.83;25.20;;;1.20;99.90;;;;;;4974337;28;20251;-67
2022/03/27 05:14:37;;;;;;;27.97;19.47;;;1.10;99.90;;;;;;4974555;28;20275;-69
2022/03/27 05:17:04;;;;;;;29.67;21.43;;;1.20;99.90;;;;;;4974252;28;20189;-68
2022/03/27 05:19:30;;;;;;;28.40;19.40;;;1.20;99.90;;;;;;4974792;28;20247;-69
2022/03/27 05:21:56;;;;;;;23.97;17.23;;;1.20;99.90;;;;;;4973414;28;20197;-69
2022/03/27 05:24:22;;;;;;;23.90;19.40;;;1.20;99.90;;;;;;4972432;28;20197;-68
2022/03/27 05:26:47;;;;;;;24.63;19.40;;;1.30;99.90;;;;;;4974538;28;20590;-70
2022/03/27 05:29:13;;;;;;;32.60;22.23;;;1.30;99.90;;;;;;4974150;28;20232;-70
2022/03/27 05:31:40;;;;;;;29.90;26.90;;;1.40;99.90;;;;;;4973961;28;20240;-69
2022/03/27 05:34:05;;;;;;;27.50;23.47;;;1.40;99.90;;;;;;4974259;28;20233;-69
2022/03/27 05:36:31;;;;;;;32.20;28.10;;;1.40;99.90;;;;;;4974211;28;20215;-69
2022/03/27 05:38:57;;;;;;;40.03;36.27;;;1.50;99.90;;;;;;4973627;28;20279;-70
2022/03/27 05:41:23;;;;;;;28.97;18.97;;;1.60;99.90;;;;;;4973977;28;20205;-69
2022/03/27 05:43:49;;;;;;;27.20;21.23;;;1.70;99.90;;;;;;4973971;28;20240;-70
2022/03/27 05:46:14;;;;;;;31.37;18.00;;;1.80;99.90;;;;;;4973070;28;20637;-70
2022/03/27 05:48:40;;;;;;;25.73;17.37;;;2.00;99.90;;;;;;4973495;28;20208;-69
2022/03/27 05:51:06;;;;;;;27.30;17.20;;;2.10;99.90;;;;;;4973067;28;20182;-70
2022/03/27 05:53:32;;;;;;;27.77;20.53;;;2.30;99.90;;;;;;4974224;28;20181;-70
2022/03/27 05:55:59;;;;;;;28.73;21.57;;;2.30;99.90;;;;;;4974103;28;20254;-69
2022/03/27 05:58:25;;;;;;;32.17;17.63;;;2.50;99.90;;;;;;4970842;28;20276;-69
2022/03/27 06:00:54;;;;;;;25.00;20.50;;;2.70;99.90;;;;;;4973671;28;20271;-68
2022/03/27 06:03:20;;;;;;;28.53;16.23;;;2.80;99.90;;;;;;4973349;28;20189;-68
2022/03/27 06:05:46;;;;;;;26.60;20.50;;;2.90;99.90;;;;;;4973301;28;20576;-68
2022/03/27 06:08:12;;;;;;;27.60;24.60;;;3.00;99.90;;;;;;4973152;28;20181;-69
2022/03/27 06:10:39;;;;;;;23.30;17.67;;;3.10;99.90;;;;;;4973071;28;20197;-70
2022/03/27 06:13:05;;;;;;;21.73;15.73;;;3.20;99.90;;;;;;4973218;28;20185;-69
2022/03/27 06:15:32;;;;;;;31.07;17.43;;;3.40;99.90;;;;;;4971887;28;20217;-69
2022/03/27 06:17:59;;;;;;;26.00;18.63;;;3.50;99.90;;;;;;4972969;28;20181;-69
2022/03/27 06:20:30;;;;;;;26.90;23.93;;;3.50;99.90;;;;;;4971712;28;20181;-69
2022/03/27 06:22:57;;;;;;;27.73;22.57;;;3.70;99.90;;;;;;4972375;28;20711;-69
2022/03/27 06:25:24;;;;;;;23.23;16.87;;;3.90;99.90;;;;;;4973143;28;20205;-69
2022/03/27 06:27:50;;;;;;;27.53;24.77;;;4.00;99.90;;;;;;4972738;28;20692;-68
2022/03/27 06:30:19;;;;;;;25.03;19.10;;;4.10;99.90;;;;;;4973024;28;20181;-68
2022/03/27 06:32:48;;;;;;;22.83;19.63;;;4.30;99.90;;;;;;4973425;28;20189;-69
2022/03/27 06:35:15;;;;;;;22.43;14.83;;;4.50;99.90;;;;;;4973862;28;20212;-68
2022/03/27 06:37:42;;;;;;;23.70;16.30;;;4.70;99.90;;;;;;4984967;28;20244;-68
2022/03/27 06:40:09;;;;;;;23.70;16.27;;;4.70;99.90;;;;;;4978647;28;20240;-69
2022/03/27 06:42:36;;;;;;;24.43;20.20;;;4.90;99.90;;;;;;4973018;28;20768;-69
2022/03/27 06:45:03;;;;;;;37.70;27.50;;;5.30;99.90;;;;;;4972835;28;20291;-68
2022/03/27 06:47:29;;;;;;;25.37;18.53;;;5.80;99.90;;;;;;4972788;28;20657;-69
2022/03/27 06:49:57;;;;;;;27.23;19.57;;;6.40;99.90;;;;;;4972622;28;20265;-71
2022/03/27 06:52:24;;;;;;;25.33;17.17;;;7.30;99.90;;;;;;4972899;28;20189;-70
2022/03/27 06:54:51;;;;;;;24.63;18.10;;;7.90;99.90;;;;;;4972683;28;20204;-70
2022/03/27 06:57:17;;;;;;;25.50;22.80;;;8.20;99.90;;;;;;4972461;28;20236;-71
2022/03/27 07:05:13;;;;;;;20.90;14.70;;;9.20;99.90;;;;;;4972422;28;20205;-71
2022/03/27 07:07:39;;;;;;;23.07;15.63;;;8.90;99.90;;;;;;4972695;28;20188;-72
2022/03/27 07:10:05;;;;;;;21.43;14.67;;;9.00;99.90;;;;;;4971263;28;20235;-70
2022/03/27 07:12:31;;;;;;;23.30;14.97;;;9.50;99.90;;;;;;4972504;28;20185;-71
2022/03/27 07:14:57;;;;;;;28.13;17.93;;;9.90;99.90;;;;;;4972252;28;20213;-70
2022/03/27 07:17:23;;;;;;;22.87;17.43;;;10.20;99.90;;;;;;4970293;28;20244;-70
2022/03/27 07:19:49;;;;;;;25.27;17.00;;;10.30;99.90;;;;;;4972243;28;20189;-70
2022/03/27 07:22:15;;;;;;;21.57;16.70;;;10.20;99.90;;;;;;4970727;28;20216;-71
2022/03/27 07:24:42;;;;;;;19.97;15.30;;;10.20;99.90;;;;;;4972210;28;20761;-72
2022/03/27 07:27:08;;;;;;;18.73;16.30;;;10.80;99.90;;;;;;4971787;28;20180;-71
2022/03/27 07:29:36;;;;;;;20.90;18.70;;;11.10;99.90;;;;;;4972180;28;20268;-71
2022/03/27 07:32:02;;;;;;;24.60;20.80;;;11.50;99.90;;;;;;4970991;28;20181;-71
2022/03/27 07:34:28;;;;;;;28.13;18.47;;;11.90;99.90;;;;;;4971639;28;20216;-72
2022/03/27 07:36:54;;;;;;;20.83;17.23;;;12.20;99.90;;;;;;4971609;28;20215;-72
2022/03/27 07:39:21;;;;;;;19.87;16.50;;;12.50;99.60;;;;;;4970352;28;20189;-71
2022/03/27 07:41:47;;;;;;;20.73;18.00;;;12.60;98.70;;;;;;4970398;28;20204;-71
2022/03/27 07:44:13;;;;;;;24.77;15.57;;;13.00;98.30;;;;;;4972364;28;20201;-71
2022/03/27 07:46:38;;;;;;;26.03;16.00;;;13.20;96.80;;;;;;4971014;28;20560;-71
2022/03/27 07:49:04;;;;;;;20.27;14.83;;;13.10;96.40;;;;;;4965773;28;20695;-70
2022/03/27 07:51:30;;;;;;;24.93;15.70;;;13.30;96.40;;;;;;4952902;28;20265;-69
2022/03/27 07:53:56;;;;;;;24.53;15.77;;;13.60;96.00;;;;;;4952708;28;20189;-69
2022/03/27 07:56:21;;;;;;;17.23;14.70;;;13.90;95.30;;;;;;4952594;28;20182;-69
2022/03/27 07:58:47;;;;;;;23.60;15.73;;;14.30;94.80;;;;;;4969757;28;20288;-69
2022/03/27 08:01:15;;;;;;;20.53;15.27;;;14.70;93.80;;;;;;4971888;28;20669;-69
2022/03/27 08:03:43;;;;;;;23.33;16.37;;;14.90;93.10;;;;;;4971790;28;20181;-69
2022/03/27 08:06:09;;;;;;;24.13;16.47;;;15.30;92.20;;;;;;4971872;28;20173;-68
2022/03/27 08:08:35;;;;;;;18.70;14.37;;;15.70;90.80;;;;;;4971312;28;20193;-68
2022/03/27 08:11:01;;;;;;;20.77;14.77;;;15.80;88.70;;;;;;4970405;28;20177;-69
2022/03/27 08:13:27;;;;;;;22.67;14.23;;;15.70;87.30;;;;;;4971022;28;20181;-68
2022/03/27 08:15:53;;;;;;;23.13;14.80;;;15.80;87.30;;;;;;4971453;28;20216;-69
2022/03/27 08:18:19;;;;;;;20.50;14.23;;;16.00;85.70;;;;;;4970666;28;20192;-70
2022/03/27 08:20:44;;;;;;;19.77;14.43;;;16.30;83.40;;;;;;4971745;28;20185;-71
2022/03/27 08:23:10;;;;;;;23.60;15.13;;;16.50;81.90;;;;;;4971214;28;20212;-70
2022/03/27 08:28:21;;;;;;;24.57;16.97;;;17.00;79.60;;;;;;4968186;28;20234;-70
2022/03/27 08:30:48;;;;;;;24.00;16.97;;;17.30;77.70;;;;;;4971105;28;20597;-69
2022/03/27 08:33:15;;;;;;;21.83;16.20;;;17.50;77.20;;;;;;4971404;28;20193;-69
2022/03/27 08:35:42;;;;;;;22.50;16.33;;;17.40;74.90;;;;;;4970135;28;20207;-69
2022/03/27 08:38:09;;;;;;;25.30;16.20;;;17.60;74.60;;;;;;4970655;28;20262;-70
2022/03/27 08:40:38;;;;;;;21.83;16.13;;;17.80;73.20;;;;;;4970576;28;20185;-69
2022/03/27 08:43:15;;;;;;;21.43;15.40;;;17.90;74.00;;;;;;4971581;28;20590;-70
2022/03/27 08:45:42;;;;;;;20.23;16.37;;;18.20;72.90;;;;;;4971697;28;20207;-70
2022/03/27 08:48:09;;;;;;;22.83;17.83;;;18.20;72.30;;;;;;4971059;28;20188;-69
2022/03/27 08:50:43;;;;;;;18.10;16.27;;;18.20;72.10;;;;;;4971768;28;20220;-68
2022/03/27 08:53:12;;;;;;;22.80;16.23;;;18.20;72.30;;;;;;4971947;28;20275;-68
2022/03/27 08:55:39;;;;;;;17.63;15.70;;;18.50;71.10;;;;;;4971393;28;20251;-69
2022/03/27 08:58:08;;;;;;;19.87;15.77;;;18.80;69.90;;;;;;4972482;28;20181;-69
2022/03/27 09:00:35;;;;;;;19.93;15.57;;;19.00;69.90;;;;;;4975283;28;20185;-69
2022/03/27 09:03:02;;;;;;;19.27;12.82;;;19.50;65.60;;;;;;4974299;28;20212;-70
2022/03/27 09:05:28;;;;;;;17.13;11.68;;;19.40;63.10;;;;;;4975701;28;20348;-68
2022/03/27 09:07:56;;;;;;;16.17;12.40;;;19.40;64.60;;;;;;4974263;28;20240;-68
2022/03/27 09:10:24;;;;;;;19.65;12.35;;;19.70;63.30;;;;;;4975126;28;20191;-70
2022/03/27 09:12:52;;;;;;;19.08;12.20;;;19.90;62.20;;;;;;4973784;28;20180;-68
2022/03/27 09:15:23;;;;;;;16.63;12.20;;;19.80;62.10;;;;;;4994768;23;20683;-69
2022/03/27 09:18:12;;;;;;;22.30;12.60;;;20.00;61.50;;;;;;4978113;28;20722;-70
2022/03/27 09:20:53;;;;;;;16.75;12.65;;;19.90;61.90;;;;;;4994693;28;20184;-70
2022/03/27 09:23:24;;;;;;;14.45;11.60;;;20.20;60.30;;;;;;4971890;28;20212;-70
2022/03/27 09:25:55;;;;;;;19.17;12.07;;;20.30;61.50;;;;;;4975130;28;20295;-70
2022/03/27 09:28:22;;;;;;;19.58;12.38;;;20.00;63.00;;;;;;4973846;28;20193;-69
2022/03/27 09:30:48;;;;;;;19.90;12.90;;;20.00;59.60;;;;;;4975271;28;20225;-70
2022/03/27 09:33:48;;;;;;;16.67;12.85;;;20.40;60.60;;;;;;4974995;28;20197;-70
2022/03/27 09:36:27;;;;;;;15.95;12.27;;;21.00;58.90;;;;;;4974871;28;20212;-70
2022/03/27 09:39:16;;;;;;;21.15;12.80;;;21.30;58.40;;;;;;4958723;28;20838;-70
2022/03/27 09:41:54;;;;;;;22.67;12.70;;;21.70;57.20;;;;;;4954559;29;20244;-71
2022/03/27 09:44:34;;;;;;;19.63;13.60;;;22.00;56.20;;;;;;4954144;29;20196;-70
2022/03/27 09:47:06;;;;;;;20.88;12.60;;;22.40;56.70;;;;;;4954071;28;20241;-70
2022/03/27 09:49:35;;;;;;;21.33;13.00;;;22.10;55.70;;;;;;4973502;28;20192;-69
2022/03/27 09:52:11;;;;;;;21.20;12.65;;;22.20;56.00;;;;;;4974095;28;20244;-69
2022/03/27 09:54:54;;;;;;;17.92;12.02;;;22.60;53.50;;;;;;4973397;28;20215;-68
2022/03/27 09:57:34;;;;;;;21.80;13.23;;;23.10;52.80;;;;;;4972440;28;20576;-70
2022/03/27 10:00:13;;;;;;;21.25;13.35;;;23.90;50.20;;;;;;4954927;28;20192;-70
2022/03/27 10:02:39;;;;;;;15.93;12.68;;;23.90;49.40;;;;;;4954861;28;20287;-70
2022/03/27 10:05:08;;;;;;;17.75;14.65;;;24.30;48.50;;;;;;4955128;28;20198;-69
2022/03/27 10:07:41;;;;;;;18.00;16.20;;;24.40;47.60;;;;;;4958733;28;20208;-70
2022/03/27 10:10:10;;;;;;;14.90;13.35;;;24.50;45.60;;;;;;4973668;28;20183;-68
2022/03/27 10:12:38;;;;;;;20.08;15.55;;;24.50;44.70;;;;;;4972790;28;20181;-69
2022/03/27 10:15:06;;;;;;;20.10;17.00;;;23.70;44.80;;;;;;4973880;28;20221;-69
2022/03/27 10:17:37;;;;;;;22.90;16.25;;;23.70;46.40;;;;;;4971975;28;20198;-69
2022/03/27 10:20:14;;;;;;;19.92;17.85;;;23.90;44.80;;;;;;4954790;29;20274;-68
2022/03/27 10:23:09;;;;;;;20.27;14.45;;;23.60;45.80;;;;;;4954581;29;20315;-70
2022/03/27 10:25:48;;;;;;;19.70;13.82;;;24.50;43.10;;;;;;4954844;28;20217;-68
2022/03/27 10:28:16;;;;;;;22.50;12.65;;;24.20;44.50;;;;;;4963498;28;20185;-69
2022/03/27 10:30:44;;;;;;;17.60;12.23;;;24.30;43.60;;;;;;4972749;28;20602;-69
2022/03/27 10:33:10;;;;;;;19.67;10.57;;;24.90;41.00;;;;;;4972499;28;20267;-69
2022/03/27 10:35:42;;;;;;;16.70;9.68;;;25.10;37.80;;;;;;4973476;28;20208;-70
2022/03/27 10:38:24;;;;;;;17.30;11.45;;;24.80;37.40;;;;;;4963247;28;20182;-70
2022/03/27 10:41:03;;;;;;;15.48;10.93;;;24.70;37.60;;;;;;4953609;29;20192;-68
2022/03/27 10:44:05;;;;;;;15.45;10.50;;;24.80;38.20;;;;;;4954249;28;20284;-69
2022/03/27 10:46:31;;;;;;;20.63;10.77;;;25.10;37.70;;;;;;4959755;28;20212;-69
2022/03/27 10:49:16;;;;;;;18.60;11.23;;;25.90;37.00;;;;;;4971828;28;20188;-71
2022/03/27 10:51:47;;;;;;;18.23;11.98;;;26.00;35.40;;;;;;4974034;28;20181;-72
2022/03/27 10:54:15;;;;;;;19.52;11.30;;;26.00;35.40;;;;;;4973807;28;20185;-72
2022/03/27 10:56:43;;;;;;;14.25;11.55;;;25.40;34.90;;;;;;4971449;28;20533;-75
2022/03/27 10:59:11;;;;;;;17.50;11.10;;;25.40;35.20;;;;;;4953225;29;20182;-73
2022/03/27 11:01:48;;;;;;;20.90;12.52;;;25.70;34.80;;;;;;4955989;28;20207;-71
2022/03/27 11:04:17;;;;;;;15.93;10.55;;;25.70;35.20;;;;;;4961347;28;20680;-73
2022/03/27 11:06:48;;;;;;;27.63;16.00;;;26.40;34.00;;;;;;4963304;28;20181;-70
2022/03/27 11:09:30;;;;;;;14.35;10.60;;;26.30;34.10;;;;;;4952475;28;20193;-71
2022/03/27 11:11:57;;;;;;;21.90;12.90;;;26.50;33.40;;;;;;4953925;28;20190;-71
2022/03/27 11:14:46;;;;;;;21.70;14.82;;;26.70;33.20;;;;;;4953568;28;20273;-71
2022/03/27 11:17:13;;;;;;;24.48;14.07;;;26.50;34.70;;;;;;4946777;28;20195;-71
2022/03/27 11:19:45;;;;;;;35.35;17.60;;;26.50;34.00;;;;;;4972876;28;20239;-71
2022/03/27 11:22:51;;;;;;;20.33;11.35;;;26.50;34.30;;;;;;4972573;28;20220;-71
2022/03/27 11:25:33;;;;;;;32.83;18.27;;;27.20;33.80;;;;;;4972782;28;20569;-71
2022/03/27 11:28:14;;;;;;;18.25;11.13;;;27.10;32.50;;;;;;4957904;28;20182;-71
2022/03/27 11:30:52;;;;;;;19.90;12.65;;;27.80;31.90;;;;;;4953602;28;20205;-71
2022/03/27 11:33:22;;;;;;;21.05;12.60;;;27.70;31.00;;;;;;4953527;28;20223;-70
2022/03/27 11:36:09;;;;;;;19.33;12.68;;;27.40;31.90;;;;;;4953562;28;20205;-70
2022/03/27 11:39:01;;;;;;;19.85;13.48;;;28.00;30.90;;;;;;4971464;28;20196;-70
2022/03/27 11:41:44;;;;;;;22.05;14.80;;;28.20;30.70;;;;;;4972463;28;20255;-70
2022/03/27 11:47:11;;;;;;;18.08;11.70;;;28.40;29.60;;;;;;4964814;28;20685;-71
2022/03/27 11:49:41;;;;;;;17.05;10.65;;;28.30;29.50;;;;;;4953224;28;20225;-71
2022/03/27 11:52:12;;;;;;;17.58;10.77;;;28.30;28.60;;;;;;4951921;29;20204;-70
2022/03/27 11:54:37;;;;;;;18.70;10.88;;;28.50;29.40;;;;;;4953147;28;20220;-71
2022/03/27 11:57:05;;;;;;;16.08;10.73;;;28.70;29.50;;;;;;4958560;28;20180;-71
2022/03/27 11:59:31;;;;;;;20.27;12.48;;;28.60;29.20;;;;;;4972944;28;20193;-71
2022/03/27 12:01:59;;;;;;;16.75;11.30;;;28.30;29.50;;;;;;4973231;28;20213;-71
2022/03/27 12:04:26;;;;;;;21.15;11.77;;;28.40;29.30;;;;;;4972916;28;20185;-72
2022/03/27 12:06:56;;;;;;;14.07;11.27;;;28.50;29.40;;;;;;4967981;28;20184;-72
2022/03/27 12:09:30;;;;;;;16.55;11.48;;;28.90;29.10;;;;;;4953632;28;20597;-72
2022/03/27 12:12:13;;;;;;;13.82;11.00;;;29.40;28.70;;;;;;4952852;28;20588;-72
2022/03/27 12:15:00;;;;;;;15.50;10.10;;;30.30;28.50;;;;;;4952812;28;20271;-72
2022/03/27 12:17:32;;;;;;;14.73;9.85;;;30.10;27.60;;;;;;4957172;28;20185;-72
2022/03/27 12:20:05;;;;;;;15.90;9.48;;;30.20;27.50;;;;;;4952993;28;20193;-72
2022/03/27 12:22:32;;;;;;;11.30;9.57;;;29.90;27.10;;;;;;4952813;28;20217;-72
2022/03/27 12:24:58;;;;;;;13.27;9.40;;;29.20;28.20;;;;;;4952942;28;20213;-72
2022/03/27 12:30:09;;;;;;;14.20;10.68;;;29.70;27.20;;;;;;4971819;28;20653;-71
2022/03/27 12:32:36;;;;;;;15.27;11.13;;;30.70;26.40;;;;;;4973643;28;20185;-72
2022/03/27 12:35:05;;;;;;;14.30;10.02;;;31.10;26.00;;;;;;4974887;28;20240;-71
2022/03/27 12:37:33;;;;;;;15.32;12.27;;;30.90;25.60;;;;;;4965496;28;20189;-69
2022/03/27 12:40:01;;;;;;;22.17;14.63;;;31.00;26.30;;;;;;4955494;29;20190;-73
2022/03/27 12:42:40;;;;;;;16.67;11.15;;;29.90;27.80;;;;;;4956424;28;20685;-72
2022/03/27 12:45:07;;;;;;;13.63;11.70;;;29.40;28.60;;;;;;4960207;28;20207;-73
2022/03/27 12:47:40;;;;;;;14.98;11.77;;;30.10;27.60;;;;;;4966264;28;20185;-73
2022/03/27 12:50:09;;;;;;;15.13;8.98;;;30.70;26.40;;;;;;4955742;29;20182;-72
2022/03/27 12:52:59;;;;;;;14.90;9.57;;;30.40;25.00;;;;;;4955694;28;20268;-68
2022/03/27 12:55:28;;;;;;;14.38;9.18;;;30.70;24.70;;;;;;4955792;28;20216;-68
2022/03/27 12:57:56;;;;;;;13.40;9.95;;;30.50;25.00;;;;;;4962603;28;20657;-67
2022/03/27 13:00:25;;;;;;;16.83;9.10;;;31.10;25.00;;;;;;4964766;28;20733;-67
2022/03/27 13:03:17;;;;;;;15.20;9.98;;;30.90;24.00;;;;;;4954167;28;20307;-69
2022/03/27 13:05:56;;;;;;;17.58;10.07;;;30.30;24.40;;;;;;4954209;28;20202;-68
2022/03/27 13:08:25;;;;;;;14.30;10.13;;;31.00;25.10;;;;;;4964482;28;20312;-69
2022/03/27 13:11:01;;;;;;;14.25;10.45;;;31.90;24.70;;;;;;4974998;28;20185;-67
2022/03/27 13:13:41;;;;;;;16.08;11.35;;;31.60;24.60;;;;;;4975149;28;20185;-68
2022/03/27 13:16:24;;;;;;;14.20;9.63;;;31.20;25.70;;;;;;4974982;28;20893;-68
2022/03/27 13:19:05;;;;;;;12.18;9.32;;;31.30;25.60;;;;;;4960052;28;20681;-68
2022/03/27 13:21:45;;;;;;;14.50;9.77;;;31.30;25.90;;;;;;4955797;28;20217;-69
2022/03/27 13:24:15;;;;;;;13.70;8.93;;;32.10;25.80;;;;;;4960604;28;20264;-68
2022/03/27 13:26:49;;;;;;;14.15;9.02;;;32.00;24.90;;;;;;4966001;28;20182;-68
2022/03/27 13:29:16;;;;;;;14.60;9.43;;;32.50;24.50;;;;;;4961733;28;20187;-68
2022/03/27 13:31:43;;;;;;;12.20;9.55;;;33.70;23.70;;;;;;4975041;28;20653;-68
2022/03/27 13:34:11;;;;;;;13.07;9.00;;;32.80;23.50;;;;;;4974912;28;20216;-68
2022/03/27 13:36:39;;;;;;;16.85;10.18;;;32.80;23.30;;;;;;4969439;28;20237;-68
2022/03/27 13:39:08;;;;;;;16.02;11.57;;;33.20;23.20;;;;;;4955211;28;20220;-68
2022/03/27 13:44:23;;;;;;;14.50;11.68;;;32.80;22.50;;;;;;4954320;28;20273;-72
2022/03/27 13:46:49;;;;;;;17.05;12.30;;;32.70;23.40;;;;;;4961731;28;20204;-72
2022/03/27 13:49:16;;;;;;;21.00;12.02;;;33.10;23.30;;;;;;4974472;28;20185;-72
2022/03/27 13:51:44;;;;;;;16.15;11.35;;;32.80;23.60;;;;;;4973347;28;20188;-68
2022/03/27 13:54:10;;;;;;;15.63;9.90;;;32.30;24.00;;;;;;4974409;28;20220;-67
2022/03/27 13:56:38;;;;;;;17.90;12.13;;;30.60;24.00;;;;;;4972942;28;20769;-69
2022/03/27 13:59:05;;;;;;;15.68;10.10;;;31.00;24.60;;;;;;4969625;28;20197;-68
2022/03/27 14:01:35;;;;;;;14.38;10.73;;;31.40;24.60;;;;;;4955058;28;20301;-68
2022/03/27 14:04:05;;;;;;;14.50;10.15;;;30.90;24.20;;;;;;4955202;28;20194;-68
2022/03/27 14:06:30;;;;;;;16.70;11.02;;;30.90;24.30;;;;;;4958547;28;20200;-68
2022/03/27 14:08:56;;;;;;;16.55;10.02;;;31.20;24.40;;;;;;4972859;28;20714;-68
2022/03/27 14:11:23;;;;;;;12.55;9.60;;;31.20;24.50;;;;;;4974623;28;20173;-68
2022/03/27 14:13:49;;;;;;;15.75;10.65;;;30.80;23.60;;;;;;4974268;28;20188;-69
2022/03/27 14:16:14;;;;;;;16.73;10.85;;;30.30;24.60;;;;;;4972480;28;20212;-68
2022/03/27 14:18:40;;;;;;;15.70;10.10;;;31.20;25.00;;;;;;4957677;28;20217;-68
2022/03/27 14:21:07;;;;;;;17.55;10.55;;;31.60;24.50;;;;;;4954798;28;20324;-68
2022/03/27 14:23:33;;;;;;;15.00;10.27;;;31.70;24.70;;;;;;4954504;29;20693;-68
2022/03/27 14:26:01;;;;;;;13.55;10.95;;;31.70;24.80;;;;;;4954684;28;20197;-70
2022/03/27 14:28:30;;;;;;;15.15;10.43;;;31.70;24.10;;;;;;4954437;28;20264;-68
2022/03/27 14:30:57;;;;;;;17.20;11.15;;;31.80;24.00;;;;;;4954575;28;20178;-68
2022/03/27 14:33:24;;;;;;;14.70;11.20;;;31.00;24.30;;;;;;4954524;28;20213;-71
2022/03/27 14:35:51;;;;;;;23.70;10.10;;;30.80;24.80;;;;;;4954548;29;20236;-71
2022/03/27 14:38:17;;;;;;;13.00;9.90;;;31.20;24.30;;;;;;4967285;28;20208;-71
2022/03/27 14:40:43;;;;;;;16.70;11.60;;;31.30;24.70;;;;;;4973557;28;20327;-71
2022/03/27 14:43:09;;;;;;;19.20;9.57;;;30.20;25.00;;;;;;4972221;28;20201;-70
2022/03/27 14:45:35;;;;;;;17.60;10.27;;;30.60;25.10;;;;;;4972303;28;20212;-71
2022/03/27 14:48:01;;;;;;;14.55;9.90;;;30.20;25.90;;;;;;4957887;28;20182;-71
2022/03/27 14:50:28;;;;;;;16.58;10.10;;;30.70;25.00;;;;;;4954107;28;20213;-71
2022/03/27 14:52:54;;;;;;;18.52;11.40;;;31.90;24.90;;;;;;4954352;28;20220;-71
2022/03/27 14:58:06;;;;;;;18.20;10.50;;;31.40;24.90;;;;;;4966317;28;20187;-71
2022/03/27 15:00:35;;;;;;;16.35;10.02;;;32.30;24.50;;;;;;4977800;28;20209;-71
2022/03/27 15:03:05;;;;;;;14.77;9.88;;;31.80;24.30;;;;;;4974622;28;20240;-71
2022/03/27 15:05:36;;;;;;;19.67;11.23;;;30.90;24.40;;;;;;4973221;28;20583;-71
2022/03/27 15:08:05;;;;;;;13.95;9.77;;;30.90;24.20;;;;;;4958126;28;20182;-71
2022/03/27 15:10:34;;;;;;;18.80;10.90;;;32.10;23.50;;;;;;4953860;28;20269;-70
2022/03/27 15:13:00;;;;;;;14.20;10.80;;;32.20;23.30;;;;;;4952843;29;20193;-70
2022/03/27 15:15:26;;;;;;;15.38;11.15;;;32.30;23.90;;;;;;4974083;23;20230;-72
2022/03/27 15:17:53;;;;;;;13.23;10.40;;;31.30;24.80;;;;;;4952197;29;20574;-71
2022/03/27 15:20:20;;;;;;;13.00;10.10;;;29.90;25.50;;;;;;4953513;28;20178;-71
2022/03/27 15:22:46;;;;;;;15.18;9.90;;;29.10;26.10;;;;;;4953449;28;20221;-71
2022/03/27 15:25:12;;;;;;;18.08;10.10;;;29.00;27.10;;;;;;4951916;28;20286;-71
2022/03/27 15:27:39;;;;;;;19.10;10.07;;;29.80;26.40;;;;;;4952677;28;20182;-71
2022/03/27 15:30:08;;;;;;;15.43;10.05;;;30.00;26.20;;;;;;4953239;28;20653;-72
2022/03/27 15:32:38;;;;;;;21.80;10.55;;;30.20;26.10;;;;;;4953173;28;20195;-72
2022/03/27 15:35:05;;;;;;;12.95;10.60;;;30.20;25.80;;;;;;4952150;29;20220;-71
2022/03/27 15:37:32;;;;;;;20.30;10.70;;;31.10;25.90;;;;;;4952421;28;20268;-71
2022/03/27 15:39:58;;;;;;;14.75;10.52;;;31.30;25.10;;;;;;4952126;29;20556;-72
2022/03/27 15:42:24;;;;;;;14.40;10.07;;;31.30;25.00;;;;;;4952988;28;20214;-71
2022/03/27 15:44:49;;;;;;;18.15;10.27;;;31.50;24.80;;;;;;4953197;28;20209;-71
2022/03/27 15:47:17;;;;;;;19.05;9.57;;;30.60;25.50;;;;;;4952717;28;20220;-71
2022/03/27 15:49:42;;;;;;;17.02;10.80;;;29.60;26.90;;;;;;4952902;28;20415;-71
2022/03/27 15:52:08;;;;;;;13.23;10.65;;;29.70;26.20;;;;;;4952838;28;20268;-71
2022/03/27 15:54:34;;;;;;;15.50;9.65;;;29.60;26.30;;;;;;4955102;28;20268;-71
2022/03/27 15:57:00;;;;;;;17.05;9.60;;;29.30;26.40;;;;;;4952418;28;20204;-70
2022/03/27 15:59:28;;;;;;;16.40;9.45;;;28.90;27.00;;;;;;4951445;29;20189;-71